Time;durP1;ratioP1;P1;durP2;ratioP2;P2;SDS_P1;SDS_P2;PMS_P1;PMS_P2;Temp;Humidity;BMP_temperature;BMP_pressure;BME280_temperature;BME280_humidity;BME280_pressure;Samples;Min_cycle;Max_cycle;Signal;HPM_P1;HPM_P2
2022/03/22 00:00:56;;;;;;;24.35;15.45;;;7.80;93.30;;;;;;5043348;28;20057;-72
2022/03/22 00:03:25;;;;;;;25.25;14.40;;;7.80;92.80;;;;;;5041926;28;20493;-72
2022/03/22 00:05:54;;;;;;;25.02;14.25;;;7.80;93.20;;;;;;5040105;28;20045;-78
2022/03/22 00:08:21;;;;;;;24.33;14.60;;;7.80;93.20;;;;;;5041974;28;20060;-78
2022/03/22 00:10:47;;;;;;;22.85;12.73;;;7.70;93.50;;;;;;5043438;28;20036;-79
2022/03/22 00:13:14;;;;;;;23.60;13.48;;;7.90;93.10;;;;;;5042461;28;20045;-73
2022/03/22 00:15:40;;;;;;;23.02;13.70;;;7.70;93.50;;;;;;5042154;28;20531;-77
2022/03/22 00:18:05;;;;;;;28.55;15.27;;;7.70;93.30;;;;;;5041768;28;20045;-78
2022/03/22 00:20:32;;;;;;;20.42;13.48;;;7.70;93.70;;;;;;5042728;28;20436;-77
2022/03/22 00:22:58;;;;;;;24.13;13.82;;;7.60;93.30;;;;;;5042943;28;20057;-78
2022/03/22 00:25:24;;;;;;;33.53;18.30;;;7.70;93.30;;;;;;5041306;28;20041;-78
2022/03/22 00:27:53;;;;;;;21.77;13.45;;;7.70;93.30;;;;;;5043164;28;20048;-76
2022/03/22 00:30:21;;;;;;;23.25;12.80;;;7.60;93.60;;;;;;5042941;28;20049;-73
2022/03/22 00:32:48;;;;;;;17.75;11.70;;;7.60;93.50;;;;;;5041257;28;20103;-72
2022/03/22 00:35:17;;;;;;;22.00;12.63;;;7.50;93.80;;;;;;5042694;28;20044;-77
2022/03/22 00:37:44;;;;;;;21.92;12.85;;;7.50;93.80;;;;;;5038001;28;20140;-72
2022/03/22 00:40:14;;;;;;;19.15;12.02;;;7.30;94.20;;;;;;5041060;28;20037;-72
2022/03/22 00:42:40;;;;;;;21.23;11.83;;;7.40;93.70;;;;;;5041723;28;20064;-71
2022/03/22 00:45:06;;;;;;;22.98;14.00;;;7.30;94.10;;;;;;5040953;28;20405;-78
2022/03/22 00:47:32;;;;;;;30.88;15.00;;;7.40;93.80;;;;;;5042464;28;20049;-78
2022/03/22 00:49:58;;;;;;;25.92;12.63;;;7.50;93.90;;;;;;5028161;28;20515;-78
2022/03/22 00:52:25;;;;;;;21.85;12.43;;;7.40;93.80;;;;;;5041084;28;20045;-76
2022/03/22 00:54:52;;;;;;;22.77;13.32;;;7.40;94.00;;;;;;5042456;28;20439;-77
2022/03/22 00:57:18;;;;;;;22.63;13.13;;;7.40;94.20;;;;;;5041910;28;20124;-72
2022/03/22 01:00:04;;;;;;;23.38;13.75;;;7.30;94.30;;;;;;5040796;28;20051;-78
2022/03/22 01:02:34;;;;;;;20.77;13.98;;;7.20;94.30;;;;;;5040614;28;20131;-74
2022/03/22 01:05:04;;;;;;;31.75;15.45;;;7.20;94.30;;;;;;5043076;28;20045;-75
2022/03/22 01:07:30;;;;;;;28.03;15.50;;;7.20;94.00;;;;;;5038424;28;20072;-73
2022/03/22 01:09:56;;;;;;;25.20;14.70;;;7.30;94.20;;;;;;5041898;28;20260;-75
2022/03/22 01:12:22;;;;;;;25.20;14.68;;;7.10;94.80;;;;;;5042779;28;20043;-76
2022/03/22 01:14:49;;;;;;;22.02;12.73;;;7.10;94.60;;;;;;5041433;28;20126;-72
2022/03/22 01:17:15;;;;;;;22.23;13.23;;;7.10;94.70;;;;;;5024802;28;20029;-77
2022/03/22 01:19:41;;;;;;;24.98;14.93;;;6.90;95.00;;;;;;5040420;28;20103;-76
2022/03/22 01:22:07;;;;;;;20.05;12.80;;;7.00;95.10;;;;;;5042454;28;20044;-77
2022/03/22 01:24:33;;;;;;;21.27;13.48;;;6.90;94.90;;;;;;5041526;28;20470;-74
2022/03/22 01:26:58;;;;;;;27.25;13.77;;;6.80;95.50;;;;;;5041239;28;20049;-74
2022/03/22 01:29:24;;;;;;;24.73;12.60;;;6.80;95.00;;;;;;5043319;28;20084;-76
2022/03/22 01:31:50;;;;;;;24.77;13.27;;;6.80;94.70;;;;;;5041433;28;20068;-76
2022/03/22 01:34:16;;;;;;;30.05;14.35;;;7.00;94.40;;;;;;5042021;28;20033;-74
2022/03/22 01:36:42;;;;;;;25.85;12.48;;;7.10;94.40;;;;;;5042429;28;20407;-75
2022/03/22 01:39:08;;;;;;;21.77;12.35;;;7.10;94.20;;;;;;5037429;28;20045;-74
2022/03/22 01:41:34;;;;;;;21.73;13.30;;;7.10;94.40;;;;;;5032782;28;20045;-74
2022/03/22 01:44:01;;;;;;;23.17;13.25;;;7.10;94.30;;;;;;5033080;28;20045;-76
2022/03/22 01:46:27;;;;;;;25.52;13.90;;;7.10;94.30;;;;;;5033243;28;20115;-75
2022/03/22 01:48:54;;;;;;;25.05;12.45;;;7.00;94.70;;;;;;5033188;28;20045;-73
2022/03/22 01:51:23;;;;;;;20.50;11.85;;;6.90;94.60;;;;;;5033084;28;20029;-71
2022/03/22 01:53:50;;;;;;;19.88;12.95;;;6.90;95.10;;;;;;5033716;28;20057;-72
2022/03/22 01:56:16;;;;;;;22.38;13.23;;;6.90;95.00;;;;;;5032586;28;20456;-78
2022/03/22 01:58:42;;;;;;;19.70;12.70;;;6.90;95.00;;;;;;5033166;28;20041;-77
2022/03/22 02:06:38;;;;;;;20.98;13.15;;;;;;;;;;5033177;28;20048;-74
2022/03/22 02:09:04;;;;;;;24.23;13.20;;;6.60;95.40;;;;;;5033070;28;20041;-76
2022/03/22 02:11:30;;;;;;;23.27;13.63;;;6.40;95.90;;;;;;5033131;28;20477;-73
2022/03/22 02:13:56;;;;;;;23.98;12.77;;;6.30;95.90;;;;;;5033438;28;20041;-76
2022/03/22 02:16:22;;;;;;;20.58;13.00;;;6.30;95.80;;;;;;5036372;28;20125;-78
2022/03/22 02:18:51;;;;;;;20.38;12.85;;;6.20;96.20;;;;;;5036223;28;20036;-77
2022/03/22 02:21:19;;;;;;;18.05;11.07;;;6.40;96.00;;;;;;5035903;28;20045;-77
2022/03/22 02:23:57;;;;;;;18.15;11.65;;;6.50;95.60;;;;;;5036151;28;20128;-78
2022/03/22 02:26:24;;;;;;;19.45;10.93;;;6.40;95.90;;;;;;5036187;28;20501;-78
2022/03/22 02:28:53;;;;;;;20.98;11.98;;;6.40;95.50;;;;;;5035900;28;20044;-72
2022/03/22 02:31:20;;;;;;;16.88;10.50;;;6.50;95.30;;;;;;5035669;28;20037;-78
2022/03/22 02:33:46;;;;;;;18.98;12.15;;;6.50;95.80;;;;;;5035831;28;20041;-77
2022/03/22 02:36:12;;;;;;;21.55;12.20;;;6.40;95.80;;;;;;5035693;28;20452;-78
2022/03/22 02:38:38;;;;;;;18.17;11.43;;;6.40;96.20;;;;;;5035816;28;20038;-77
2022/03/22 02:41:14;;;;;;;22.05;12.38;;;6.40;95.70;;;;;;5035732;28;20409;-77
2022/03/22 02:43:39;;;;;;;22.35;11.75;;;6.20;95.80;;;;;;5035873;28;20132;-78
2022/03/22 02:46:05;;;;;;;23.95;11.55;;;6.40;95.20;;;;;;5035855;28;20182;-76
2022/03/22 02:48:31;;;;;;;22.35;11.85;;;6.50;95.10;;;;;;5035767;28;20048;-78
2022/03/22 02:50:57;;;;;;;23.17;11.65;;;6.40;95.00;;;;;;5035746;28;20037;-77
2022/03/22 02:53:23;;;;;;;22.27;11.88;;;6.40;95.00;;;;;;5035627;28;20041;-75
2022/03/22 02:55:48;;;;;;;27.42;12.73;;;6.40;95.00;;;;;;5035591;28;20041;-77
2022/03/22 02:58:14;;;;;;;19.98;11.48;;;6.30;95.00;;;;;;5035738;28;20051;-77
2022/03/22 03:00:40;;;;;;;20.25;11.45;;;6.30;95.10;;;;;;5035749;28;20041;-74
2022/03/22 03:03:05;;;;;;;19.77;11.25;;;6.20;95.10;;;;;;5035506;28;20080;-75
2022/03/22 03:05:32;;;;;;;22.85;11.65;;;6.20;95.20;;;;;;5017478;28;20118;-74
2022/03/22 03:07:59;;;;;;;22.45;11.35;;;6.10;95.00;;;;;;5035540;28;20045;-76
2022/03/22 03:10:25;;;;;;;23.67;11.00;;;6.10;95.20;;;;;;5035552;28;20029;-77
2022/03/22 03:13:03;;;;;;;20.35;12.13;;;6.00;95.20;;;;;;5017721;28;20099;-76
2022/03/22 03:15:29;;;;;;;19.55;11.50;;;6.00;95.30;;;;;;5035318;28;20400;-76
2022/03/22 03:17:55;;;;;;;20.05;11.48;;;6.00;95.20;;;;;;5035082;28;20099;-75
2022/03/22 03:20:21;;;;;;;21.52;11.90;;;6.10;95.20;;;;;;5035057;28;20029;-75
2022/03/22 03:22:47;;;;;;;17.08;10.85;;;6.00;95.20;;;;;;5035015;28;20076;-75
2022/03/22 03:25:13;;;;;;;23.10;11.25;;;6.00;95.50;;;;;;5034553;28;20060;-75
2022/03/22 03:27:39;;;;;;;21.60;11.95;;;6.00;95.20;;;;;;5034798;28;20041;-76
2022/03/22 03:30:06;;;;;;;19.55;11.57;;;6.00;95.40;;;;;;5035086;28;20034;-77
2022/03/22 03:32:32;;;;;;;26.15;12.93;;;5.90;95.50;;;;;;5034768;28;20076;-77
2022/03/22 03:34:58;;;;;;;21.95;11.70;;;5.80;95.70;;;;;;5034735;28;20401;-77
2022/03/22 03:37:25;;;;;;;25.25;12.32;;;5.70;95.70;;;;;;5034747;28;20044;-76
2022/03/22 03:39:53;;;;;;;26.15;12.55;;;5.60;96.10;;;;;;5034901;28;20136;-76
2022/03/22 03:42:19;;;;;;;21.60;12.23;;;5.60;95.80;;;;;;5034746;28;20071;-76
2022/03/22 03:47:30;;;;;;;25.63;12.40;;;5.60;96.30;;;;;;5054607;28;20044;-71
2022/03/22 03:50:01;;;;;;;18.25;12.38;;;5.50;96.70;;;;;;5054100;28;20506;-75
2022/03/22 03:52:32;;;;;;;20.65;12.70;;;5.50;96.60;;;;;;5054149;28;20366;-75
2022/03/22 03:54:58;;;;;;;;;;;5.40;97.10;;;;;;5042672;28;20052;-73
2022/03/22 03:57:25;;;;;;;21.83;12.63;;;5.50;96.90;;;;;;5034531;28;19913;-73
2022/03/22 03:59:52;;;;;;;26.95;15.00;;;5.20;97.50;;;;;;5034588;28;20034;-77
2022/03/22 04:02:18;;;;;;;22.75;12.32;;;5.30;96.90;;;;;;5034488;28;20128;-76
2022/03/22 04:04:47;;;;;;;16.23;11.18;;;5.30;96.80;;;;;;5034433;28;20033;-77
2022/03/22 04:07:13;;;;;;;20.60;12.25;;;5.30;96.60;;;;;;5034512;28;20045;-77
2022/03/22 04:09:40;;;;;;;25.38;11.15;;;5.30;96.70;;;;;;5034152;28;20052;-73
2022/03/22 04:12:06;;;;;;;22.70;11.60;;;5.30;96.50;;;;;;5034129;28;20053;-76
2022/03/22 04:14:32;;;;;;;21.48;11.77;;;5.30;96.50;;;;;;5034320;28;20050;-77
2022/03/22 04:16:58;;;;;;;19.85;11.35;;;5.20;97.20;;;;;;5034543;28;20041;-78
2022/03/22 04:19:26;;;;;;;21.10;11.20;;;5.00;96.60;;;;;;5033930;28;20123;-72
2022/03/22 04:21:52;;;;;;;17.13;10.77;;;4.90;96.90;;;;;;5033567;28;20100;-78
2022/03/22 04:24:18;;;;;;;22.05;11.20;;;5.10;96.50;;;;;;5033737;28;20064;-77
2022/03/22 04:26:44;;;;;;;17.67;11.15;;;5.40;96.00;;;;;;5033665;28;20077;-73
2022/03/22 04:34:43;;;;;;;16.85;11.20;;;5.00;96.30;;;;;;5033767;28;20453;-78
2022/03/22 04:37:12;;;;;;;18.75;10.82;;;4.90;96.60;;;;;;5033240;28;20157;-78
2022/03/22 04:39:43;;;;;;;16.67;10.75;;;4.90;96.50;;;;;;5033755;28;20060;-77
2022/03/22 04:42:09;;;;;;;16.25;10.73;;;4.90;96.50;;;;;;5029779;28;20049;-76
2022/03/22 04:44:35;;;;;;;16.45;10.40;;;4.60;96.70;;;;;;5031155;28;20060;-75
2022/03/22 04:47:02;;;;;;;19.08;10.52;;;4.60;96.80;;;;;;5015188;28;20034;-78
2022/03/22 04:49:29;;;;;;;23.05;11.25;;;4.60;97.00;;;;;;5033518;28;20409;-78
2022/03/22 04:57:24;;;;;;;20.35;11.30;;;4.60;96.50;;;;;;5033427;28;20036;-77
2022/03/22 04:59:50;;;;;;;20.85;11.32;;;4.60;96.40;;;;;;5033298;28;20037;-73
2022/03/22 05:02:16;;;;;;;23.75;11.23;;;4.60;96.40;;;;;;5015844;28;20057;-76
2022/03/22 05:04:42;;;;;;;20.83;11.45;;;4.70;96.20;;;;;;5033179;28;20060;-78
2022/03/22 05:07:09;;;;;;;17.25;10.70;;;4.70;96.20;;;;;;5033122;28;20041;-75
2022/03/22 05:09:35;;;;;;;17.02;10.88;;;4.80;96.10;;;;;;5033305;28;20077;-78
2022/03/22 05:12:02;;;;;;;18.15;11.18;;;4.90;96.30;;;;;;5032763;28;20512;-78
2022/03/22 05:14:28;;;;;;;19.92;12.98;;;4.80;96.40;;;;;;5033126;28;20038;-77
2022/03/22 05:16:56;;;;;;;27.55;13.82;;;4.90;96.70;;;;;;5033002;28;20199;-74
2022/03/22 05:19:23;;;;;;;22.77;13.02;;;4.90;96.90;;;;;;5032909;28;20090;-77
2022/03/22 05:21:49;;;;;;;21.13;12.88;;;4.90;97.10;;;;;;5032445;28;20056;-78
2022/03/22 05:24:15;;;;;;;25.13;13.45;;;5.00;97.60;;;;;;5032592;28;20034;-76
2022/03/22 05:26:40;;;;;;;24.75;13.45;;;5.00;98.00;;;;;;5031631;28;20114;-77
2022/03/22 05:29:06;;;;;;;26.33;13.90;;;4.90;98.20;;;;;;5032390;28;20128;-72
2022/03/22 05:31:34;;;;;;;22.20;13.07;;;4.80;98.10;;;;;;5032081;28;20412;-71
2022/03/22 05:34:01;;;;;;;22.60;12.93;;;4.70;98.50;;;;;;5014579;28;20041;-73
2022/03/22 05:36:27;;;;;;;17.42;11.20;;;4.40;98.60;;;;;;5032512;28;20104;-74
2022/03/22 05:38:53;;;;;;;20.25;11.20;;;4.50;97.70;;;;;;5032004;28;20046;-77
2022/03/22 05:41:20;;;;;;;17.67;10.85;;;4.50;97.00;;;;;;5032735;28;20132;-77
2022/03/22 05:43:46;;;;;;;15.95;10.63;;;4.30;96.80;;;;;;5032901;28;20049;-73
2022/03/22 05:46:12;;;;;;;16.17;10.25;;;4.40;96.90;;;;;;5032807;28;20041;-77
2022/03/22 05:48:38;;;;;;;20.17;11.10;;;4.40;96.70;;;;;;5033447;28;20091;-71
2022/03/22 05:51:04;;;;;;;20.10;10.50;;;4.40;96.60;;;;;;5036876;28;20037;-77
2022/03/22 05:53:30;;;;;;;21.00;11.15;;;4.20;96.60;;;;;;5036785;28;20096;-74
2022/03/22 05:55:56;;;;;;;19.15;11.70;;;4.20;96.70;;;;;;5036737;28;20041;-71
2022/03/22 05:58:22;;;;;;;19.45;11.15;;;4.10;96.80;;;;;;5036769;28;20048;-76
2022/03/22 06:00:48;;;;;;;18.52;11.38;;;4.20;96.80;;;;;;5036394;28;20077;-76
2022/03/22 06:03:15;;;;;;;16.35;10.35;;;4.20;96.70;;;;;;5036541;28;20037;-70
2022/03/22 06:05:42;;;;;;;17.92;10.75;;;4.40;96.60;;;;;;5036534;28;20038;-76
2022/03/22 06:08:08;;;;;;;19.73;10.02;;;4.50;96.10;;;;;;5036709;28;20098;-71
2022/03/22 06:10:34;;;;;;;22.27;11.25;;;4.70;96.00;;;;;;5036338;28;20033;-77
2022/03/22 06:13:00;;;;;;;20.17;11.02;;;4.60;96.40;;;;;;5036325;28;20049;-76
2022/03/22 06:15:29;;;;;;;20.02;11.07;;;4.60;96.80;;;;;;5036192;28;20030;-73
2022/03/22 06:18:02;;;;;;;20.60;11.05;;;4.40;96.90;;;;;;5036219;28;20083;-76
2022/03/22 06:20:32;;;;;;;19.83;11.20;;;4.20;97.30;;;;;;5036340;28;20045;-75
2022/03/22 06:23:00;;;;;;;20.15;11.45;;;4.20;97.60;;;;;;5036266;28;20511;-73
2022/03/22 06:25:26;;;;;;;17.15;10.63;;;4.20;97.30;;;;;;5036186;28;20047;-76
2022/03/22 06:27:53;;;;;;;24.38;11.93;;;4.40;97.00;;;;;;5036073;28;20056;-78
2022/03/22 06:30:19;;;;;;;17.65;11.50;;;4.60;96.90;;;;;;5035238;28;20572;-71
2022/03/22 06:32:46;;;;;;;25.08;11.93;;;4.60;96.90;;;;;;5043298;28;20052;-74
2022/03/22 06:35:16;;;;;;;19.40;12.20;;;4.90;96.90;;;;;;5036168;28;20045;-71
2022/03/22 06:37:43;;;;;;;26.73;12.15;;;5.20;96.70;;;;;;5034457;28;20067;-80
2022/03/22 06:40:10;;;;;;;24.52;12.35;;;5.50;97.40;;;;;;5035823;28;20501;-79
2022/03/22 06:42:37;;;;;;;25.58;14.00;;;5.80;96.80;;;;;;5037855;28;20056;-79
2022/03/22 06:45:05;;;;;;;23.70;13.75;;;6.20;97.00;;;;;;5047472;28;20045;-80
2022/03/22 06:47:31;;;;;;;26.73;14.57;;;6.40;96.60;;;;;;5035520;28;20082;-77
2022/03/22 06:49:58;;;;;;;30.52;19.30;;;6.60;97.10;;;;;;5034712;28;20056;-79
2022/03/22 06:52:24;;;;;;;20.63;12.63;;;6.70;96.60;;;;;;5034797;28;20029;-78
2022/03/22 06:54:50;;;;;;;27.45;14.55;;;6.80;96.80;;;;;;5034618;28;20041;-78
2022/03/22 06:57:16;;;;;;;24.05;13.40;;;7.00;96.90;;;;;;5036812;28;20412;-78
2022/03/22 06:59:41;;;;;;;24.23;12.10;;;6.90;96.60;;;;;;5034206;28;20441;-77
2022/03/22 07:02:08;;;;;;;19.92;10.82;;;6.90;95.70;;;;;;5034323;28;20064;-78
2022/03/22 07:04:34;;;;;;;25.50;11.93;;;7.20;95.30;;;;;;5033986;28;20037;-78
2022/03/22 07:07:01;;;;;;;22.38;12.13;;;6.40;95.60;;;;;;5042913;28;20415;-72
2022/03/22 07:09:27;;;;;;;21.58;12.75;;;6.40;96.50;;;;;;5033696;28;20602;-73
2022/03/22 07:11:55;;;;;;;20.92;11.75;;;6.60;96.30;;;;;;5034202;28;20416;-73
2022/03/22 07:14:25;;;;;;;17.08;11.93;;;6.50;96.60;;;;;;5034246;28;20117;-73
2022/03/22 07:16:51;;;;;;;20.20;10.70;;;6.80;96.70;;;;;;5033528;28;20041;-74
2022/03/22 07:19:19;;;;;;;21.77;10.85;;;6.80;96.30;;;;;;5032308;28;20279;-73
2022/03/22 07:21:46;;;;;;;16.63;11.27;;;7.00;95.70;;;;;;5033965;28;20061;-74
2022/03/22 07:24:13;;;;;;;16.98;10.95;;;7.40;94.60;;;;;;5034126;28;20025;-75
2022/03/22 07:26:40;;;;;;;20.10;11.60;;;8.10;95.60;;;;;;5034007;28;20072;-73
2022/03/22 07:29:07;;;;;;;20.10;11.25;;;8.60;95.10;;;;;;5034178;28;20374;-73
2022/03/22 07:31:38;;;;;;;29.20;12.40;;;8.60;95.30;;;;;;5016270;28;20064;-73
2022/03/22 07:34:06;;;;;;;23.80;12.18;;;8.90;96.00;;;;;;5033432;28;20076;-73
2022/03/22 07:36:32;;;;;;;24.35;14.35;;;8.60;94.20;;;;;;5033462;28;20049;-72
2022/03/22 07:38:58;;;;;;;20.00;11.77;;;8.50;96.10;;;;;;5033538;28;20519;-72
2022/03/22 07:41:24;;;;;;;22.00;11.32;;;8.80;94.90;;;;;;5033279;28;20046;-73
2022/03/22 07:43:49;;;;;;;23.08;12.90;;;8.70;95.10;;;;;;5033635;28;20405;-72
2022/03/22 07:46:15;;;;;;;23.55;11.68;;;8.70;95.00;;;;;;5033651;28;20876;-73
2022/03/22 07:48:41;;;;;;;20.52;13.20;;;8.80;95.20;;;;;;4990879;28;1240234;-73
2022/03/22 07:53:53;;;;;;;21.75;11.65;;;9.30;94.70;;;;;;5034707;28;20072;-73
2022/03/22 07:56:19;;;;;;;18.48;10.45;;;9.00;95.20;;;;;;5033631;28;20167;-72
2022/03/22 07:58:45;;;;;;;18.30;9.93;;;8.50;93.80;;;;;;5029979;28;20084;-73
2022/03/22 08:01:10;;;;;;;19.10;9.77;;;8.70;95.10;;;;;;5033895;28;20822;-74
2022/03/22 08:03:36;;;;;;;18.73;8.40;;;8.80;94.30;;;;;;5034412;28;20501;-72
2022/03/22 08:06:02;;;;;;;19.08;8.85;;;8.60;94.90;;;;;;5034497;28;20401;-73
2022/03/22 08:08:28;;;;;;;16.42;9.63;;;8.40;95.40;;;;;;5034393;28;20045;-72
2022/03/22 08:10:53;;;;;;;20.13;8.68;;;8.50;94.90;;;;;;5033915;28;20076;-72
2022/03/22 08:13:19;;;;;;;20.27;9.57;;;8.60;94.80;;;;;;5033665;28;20041;-72
2022/03/22 08:15:45;;;;;;;16.27;9.02;;;8.60;94.90;;;;;;5034486;28;20076;-72
2022/03/22 08:18:11;;;;;;;16.90;9.15;;;8.60;94.70;;;;;;5016398;28;20067;-73
2022/03/22 08:20:37;;;;;;;18.83;9.68;;;8.70;95.90;;;;;;5033774;28;20033;-73
2022/03/22 08:23:04;;;;;;;19.27;10.90;;;8.60;94.90;;;;;;5033580;28;20068;-72
2022/03/22 08:25:38;;;;;;;18.40;9.77;;;8.90;95.50;;;;;;5033975;28;20378;-72
2022/03/22 08:28:06;;;;;;;20.70;10.25;;;8.80;95.80;;;;;;5033865;28;20071;-73
2022/03/22 08:30:33;;;;;;;35.88;12.88;;;8.90;94.60;;;;;;5033910;28;20092;-73
2022/03/22 08:33:12;;;;;;;114.10;31.80;;;9.10;95.50;;;;;;5033748;28;20037;-73
2022/03/22 08:35:45;;;;;;;25.25;11.38;;;9.30;95.50;;;;;;5033875;28;20048;-72
2022/03/22 08:38:12;;;;;;;21.00;11.63;;;9.20;95.00;;;;;;5033793;28;20096;-72
2022/03/22 08:40:39;;;;;;;72.55;25.50;;;9.30;96.40;;;;;;5033745;28;20451;-73
2022/03/22 08:43:08;;;;;;;52.40;18.45;;;9.50;95.20;;;;;;5016009;28;20539;-73
2022/03/22 08:45:35;;;;;;;29.85;13.38;;;9.60;95.30;;;;;;5030863;28;20444;-72
2022/03/22 08:48:02;;;;;;;25.90;10.52;;;9.70;95.20;;;;;;5031876;28;20068;-73
2022/03/22 08:50:29;;;;;;;22.60;11.23;;;9.50;95.40;;;;;;5032355;28;20132;-73
2022/03/22 08:52:57;;;;;;;25.42;12.32;;;9.90;95.30;;;;;;5051827;28;20123;-72
2022/03/22 08:55:25;;;;;;;18.85;9.82;;;9.80;94.30;;;;;;5053379;28;20048;-73
2022/03/22 08:57:52;;;;;;;54.60;28.15;;;9.80;94.20;;;;;;5053282;28;20145;-73
2022/03/22 09:00:19;;;;;;;42.78;18.55;;;9.60;94.50;;;;;;5053413;28;20052;-72
2022/03/22 09:02:47;;;;;;;42.22;19.15;;;9.80;95.30;;;;;;5053220;28;20401;-73
2022/03/22 09:08:01;;;;;;;42.38;14.73;;;10.00;95.40;;;;;;5053320;28;20040;-73
2022/03/22 09:10:29;;;;;;;288.10;46.72;;;10.10;94.70;;;;;;5043371;28;20740;-73
2022/03/22 09:12:55;;;;;;;72.15;21.95;;;10.30;95.10;;;;;;5033239;28;20524;-73
2022/03/22 09:15:22;;;;;;;205.00;33.53;;;10.20;95.00;;;;;;5033236;28;20049;-74
2022/03/22 09:17:49;;;;;;;45.28;17.73;;;10.20;94.70;;;;;;5033114;28;20040;-72
2022/03/22 09:20:15;;;;;;;24.00;12.15;;;10.50;95.10;;;;;;5033176;28;20029;-73
2022/03/22 09:22:43;;;;;;;144.80;26.35;;;10.30;94.60;;;;;;5032981;28;20057;-73
2022/03/22 09:25:10;;;;;;;36.00;14.40;;;10.20;94.60;;;;;;5032935;28;20042;-73
2022/03/22 09:27:37;;;;;;;39.45;15.75;;;10.20;94.70;;;;;;5032863;28;20049;-73
2022/03/22 09:30:04;;;;;;;17.92;10.18;;;10.50;94.80;;;;;;5032819;28;20061;-74
2022/03/22 09:32:30;;;;;;;19.77;10.75;;;10.70;94.50;;;;;;5032724;28;20044;-73
2022/03/22 09:34:58;;;;;;;22.85;11.63;;;11.10;94.50;;;;;;5032734;28;20041;-73
2022/03/22 09:37:24;;;;;;;19.75;11.23;;;11.10;94.10;;;;;;5032713;28;20033;-74
2022/03/22 09:39:50;;;;;;;22.52;10.55;;;11.00;93.70;;;;;;5032944;28;20042;-73
2022/03/22 09:42:16;;;;;;;18.55;10.75;;;11.10;94.00;;;;;;5032747;28;20136;-73
2022/03/22 09:44:48;;;;;;;27.55;10.73;;;11.10;94.00;;;;;;5032938;28;20497;-72
2022/03/22 09:47:14;;;;;;;19.40;10.52;;;11.10;93.70;;;;;;5032768;28;20060;-73
2022/03/22 09:49:40;;;;;;;17.33;10.27;;;11.20;93.20;;;;;;5032996;28;20049;-73
2022/03/22 09:52:07;;;;;;;20.38;10.85;;;11.50;93.60;;;;;;5032832;28;20065;-72
2022/03/22 09:54:33;;;;;;;16.85;10.27;;;11.50;93.60;;;;;;5032802;28;20498;-73
2022/03/22 09:56:59;;;;;;;16.67;8.50;;;11.40;92.80;;;;;;5032741;28;20086;-73
2022/03/22 09:59:24;;;;;;;18.67;10.50;;;12.10;93.70;;;;;;5032781;28;20083;-73
2022/03/22 10:01:50;;;;;;;16.23;10.10;;;11.70;93.20;;;;;;5014957;28;20053;-73
2022/03/22 10:04:17;;;;;;;24.83;10.27;;;11.60;91.80;;;;;;5032790;28;20581;-74
2022/03/22 10:06:54;;;;;;;18.63;9.70;;;12.00;93.30;;;;;;5032780;28;20401;-73
2022/03/22 10:09:31;;;;;;;19.67;9.88;;;11.60;92.20;;;;;;5032702;28;20034;-73
2022/03/22 10:11:57;;;;;;;20.58;9.80;;;11.80;91.60;;;;;;5032686;28;20103;-73
2022/03/22 10:14:33;;;;;;;19.10;9.38;;;11.80;91.20;;;;;;5032491;28;20060;-73
2022/03/22 10:17:07;;;;;;;18.23;9.23;;;;;;;;;;5032389;28;20052;-74
2022/03/22 10:19:39;;;;;;;20.20;9.95;;;12.10;91.10;;;;;;5032427;28;20653;-73
2022/03/22 10:22:10;;;;;;;20.95;10.45;;;12.00;92.00;;;;;;5032288;28;20048;-73
2022/03/22 10:24:47;;;;;;;25.92;10.85;;;12.30;91.50;;;;;;5032268;28;20147;-73
2022/03/22 10:27:24;;;;;;;21.77;9.73;;;12.30;92.30;;;;;;5032521;28;20076;-73
2022/03/22 10:29:51;;;;;;;15.00;9.02;;;12.50;91.40;;;;;;5032554;28;20042;-74
2022/03/22 10:32:19;;;;;;;18.05;9.38;;;12.30;90.60;;;;;;5032440;28;20049;-73
2022/03/22 10:34:45;;;;;;;19.05;9.43;;;12.40;90.70;;;;;;5033139;28;20119;-72
2022/03/22 10:37:11;;;;;;;18.75;9.18;;;12.50;90.80;;;;;;5035960;28;20048;-73
2022/03/22 10:39:44;;;;;;;19.27;10.05;;;12.60;89.30;;;;;;5036120;28;20049;-73
2022/03/22 10:42:10;;;;;;;16.00;8.60;;;12.40;88.50;;;;;;5035855;28;20053;-73
2022/03/22 10:44:38;;;;;;;16.58;9.00;;;12.60;89.40;;;;;;5035670;28;20045;-73
2022/03/22 10:47:07;;;;;;;43.30;11.38;;;12.70;89.00;;;;;;5035492;28;20535;-73
2022/03/22 10:49:33;;;;;;;15.75;9.15;;;12.60;88.50;;;;;;5035663;28;20497;-73
2022/03/22 10:51:59;;;;;;;13.73;8.35;;;12.60;88.10;;;;;;5035689;28;20048;-73
2022/03/22 10:54:25;;;;;;;15.77;8.48;;;12.60;88.20;;;;;;5038226;28;20437;-73
2022/03/22 10:56:56;;;;;;;17.55;8.35;;;13.10;89.60;;;;;;5035621;28;20106;-73
2022/03/22 10:59:25;;;;;;;18.63;8.40;;;13.40;89.90;;;;;;5035683;28;20033;-73
2022/03/22 11:01:52;;;;;;;13.02;8.13;;;13.40;89.70;;;;;;5035545;28;20119;-73
2022/03/22 11:04:21;;;;;;;16.70;8.13;;;13.40;86.90;;;;;;5035461;28;20041;-73
2022/03/22 11:06:47;;;;;;;14.68;8.88;;;13.60;90.90;;;;;;5035195;28;20038;-73
2022/03/22 11:09:18;;;;;;;16.33;7.90;;;13.70;87.80;;;;;;5035563;28;20164;-73
2022/03/22 11:11:45;;;;;;;19.05;8.65;;;13.90;88.30;;;;;;5035648;28;20083;-73
2022/03/22 11:14:16;;;;;;;14.75;8.00;;;13.70;88.50;;;;;;5035579;28;20045;-73
2022/03/22 11:16:46;;;;;;;12.23;6.90;;;13.60;84.40;;;;;;5035250;28;20069;-73
2022/03/22 11:19:12;;;;;;;24.02;8.57;;;13.60;85.00;;;;;;5035240;28;20041;-73
2022/03/22 11:21:38;;;;;;;12.00;7.22;;;13.80;88.80;;;;;;5037364;28;20079;-73
2022/03/22 11:24:09;;;;;;;14.35;7.88;;;13.50;81.60;;;;;;5035139;28;20045;-73
2022/03/22 11:26:40;;;;;;;19.65;11.43;;;13.30;81.40;;;;;;5035170;28;20040;-73
2022/03/22 11:29:09;;;;;;;14.10;8.50;;;13.40;82.80;;;;;;5035069;28;20525;-73
2022/03/22 11:31:36;;;;;;;14.80;8.73;;;13.60;83.40;;;;;;5035075;28;20041;-73
2022/03/22 11:34:13;;;;;;;21.98;10.20;;;13.50;81.90;;;;;;5035097;28;20065;-74
2022/03/22 11:36:49;;;;;;;17.42;9.25;;;13.80;84.20;;;;;;5034957;28;20057;-73
2022/03/22 11:39:17;;;;;;;12.38;8.15;;;13.60;83.00;;;;;;5031474;28;20574;-74
2022/03/22 11:44:32;;;;;;;13.38;7.70;;;13.50;82.30;;;;;;5033085;28;20040;-73
2022/03/22 11:47:02;;;;;;;12.32;7.43;;;13.70;80.20;;;;;;5029209;28;20049;-73
2022/03/22 11:49:28;;;;;;;11.95;7.40;;;13.90;81.60;;;;;;5032514;28;20037;-73
2022/03/22 11:51:57;;;;;;;14.52;7.55;;;13.70;80.70;;;;;;5032014;28;20048;-74
2022/03/22 11:54:28;;;;;;;13.35;8.05;;;14.10;82.90;;;;;;5014780;28;20033;-73
2022/03/22 11:56:59;;;;;;;13.93;7.20;;;14.00;82.30;;;;;;5032169;28;20087;-75
2022/03/22 11:59:26;;;;;;;13.50;6.90;;;14.20;81.60;;;;;;5032538;28;20051;-73
2022/03/22 12:02:06;;;;;;;17.45;7.78;;;14.00;80.00;;;;;;5032299;28;20409;-73
2022/03/22 12:04:55;;;;;;;13.13;7.33;;;14.00;79.50;;;;;;5014915;28;20044;-75
2022/03/22 12:07:42;;;;;;;15.38;8.45;;;14.10;82.30;;;;;;5031981;28;20041;-73
2022/03/22 12:10:15;;;;;;;9.25;6.65;;;14.10;79.90;;;;;;5032334;28;20065;-73
2022/03/22 12:12:48;;;;;;;16.95;7.55;;;13.90;77.20;;;;;;5032090;28;20544;-73
2022/03/22 12:15:16;;;;;;;11.35;7.18;;;13.90;79.70;;;;;;5031802;28;20045;-73
2022/03/22 12:17:44;;;;;;;13.35;7.20;;;14.20;79.30;;;;;;5031542;28;20587;-73
2022/03/22 12:20:15;;;;;;;13.52;7.70;;;14.50;81.20;;;;;;5031981;28;20045;-73
2022/03/22 12:23:00;;;;;;;14.55;8.38;;;14.40;79.00;;;;;;5031394;28;20053;-73
2022/03/22 12:25:28;;;;;;;12.50;7.03;;;14.10;77.10;;;;;;5031806;28;20056;-73
2022/03/22 12:27:56;;;;;;;14.32;7.82;;;14.30;79.40;;;;;;5031589;28;20071;-73
2022/03/22 12:30:24;;;;;;;13.18;7.93;;;14.50;77.80;;;;;;5031761;28;20053;-73
2022/03/22 12:32:51;;;;;;;12.07;7.07;;;14.70;80.90;;;;;;5031283;28;20036;-72
2022/03/22 12:35:18;;;;;;;21.70;8.38;;;14.60;79.10;;;;;;5032680;28;20124;-73
2022/03/22 12:37:44;;;;;;;16.58;8.18;;;14.70;77.40;;;;;;5033809;28;20041;-72
2022/03/22 12:40:13;;;;;;;14.02;8.10;;;14.80;78.50;;;;;;5033281;28;20413;-73
2022/03/22 12:42:40;;;;;;;14.27;7.82;;;14.20;77.00;;;;;;5031518;28;20452;-72
2022/03/22 12:45:06;;;;;;;18.27;7.97;;;14.40;76.40;;;;;;5031410;28;20083;-72
2022/03/22 12:47:33;;;;;;;12.60;7.40;;;14.30;75.50;;;;;;5031822;28;20036;-72
2022/03/22 12:49:59;;;;;;;13.20;7.70;;;14.20;75.30;;;;;;5029236;28;20045;-72
2022/03/22 12:52:28;;;;;;;12.02;7.30;;;14.20;75.20;;;;;;5030849;28;20505;-72
2022/03/22 12:54:55;;;;;;;12.00;7.47;;;14.10;74.70;;;;;;5047948;28;20048;-72
2022/03/22 12:57:21;;;;;;;13.50;6.82;;;14.10;76.50;;;;;;5051339;28;20048;-72
2022/03/22 12:59:47;;;;;;;16.23;7.47;;;14.20;73.20;;;;;;5052206;28;20056;-72
2022/03/22 13:02:14;;;;;;;16.02;7.25;;;14.30;72.60;;;;;;5050991;28;20052;-72
2022/03/22 13:04:48;;;;;;;12.15;7.03;;;14.60;74.70;;;;;;5050585;28;20068;-72
2022/03/22 13:07:27;;;;;;;14.63;7.88;;;14.60;73.50;;;;;;5050854;28;20056;-72